createdAt,value
2018-08-06T00:01:22.487Z,100445.27
2018-08-06T00:03:53.465Z,100451.03
2018-08-06T00:06:24.719Z,100447.87
2018-08-06T00:08:56.289Z,100454.95
2018-08-06T00:11:27.353Z,100449.95
2018-08-06T00:13:58.374Z,100450.91
2018-08-06T00:16:29.493Z,100451.16
2018-08-06T00:19:00.626Z,100454.63
2018-08-06T00:21:31.521Z,100449.99
2018-08-06T00:24:02.614Z,100449.84
2018-08-06T00:26:33.488Z,100448.46
2018-08-06T00:29:04.537Z,100443.72
2018-08-06T00:31:35.481Z,100442.39
2018-08-06T00:34:06.477Z,100441.48
2018-08-06T00:36:37.518Z,100444.63
2018-08-06T00:39:11.621Z,100439.89
2018-08-06T00:41:42.464Z,100444.56
2018-08-06T00:44:13.496Z,100440.13
2018-08-06T00:46:44.456Z,100437.73
2018-08-06T00:49:15.501Z,100441.16
2018-08-06T00:51:46.541Z,100433.59
2018-08-06T00:54:17.492Z,100436.64
2018-08-06T00:56:48.532Z,100433.65
2018-08-06T00:59:19.476Z,100436.59
2018-08-06T01:01:50.456Z,100438.83
2018-08-06T01:04:21.693Z,100436.50
2018-08-06T01:06:52.597Z,100429.08
2018-08-06T01:09:23.498Z,100436.14
2018-08-06T01:11:54.508Z,100424.73
2018-08-06T01:14:27.046Z,100425.88
2018-08-06T01:16:58.388Z,100422.20
2018-08-06T01:19:29.515Z,100417.72
2018-08-06T01:22:00.569Z,100422.30
2018-08-06T01:24:31.504Z,100416.31
2018-08-06T01:27:02.488Z,100410.50
2018-08-06T01:29:33.485Z,100413.83
2018-08-06T01:32:04.505Z,100417.95
2018-08-06T01:34:35.488Z,100418.45
2018-08-06T01:37:06.670Z,100413.42
2018-08-06T01:39:37.548Z,100402.77
2018-08-06T01:42:08.537Z,100409.87
2018-08-06T01:44:39.508Z,100402.46
2018-08-06T01:47:16.294Z,100404.26
2018-08-06T01:49:47.440Z,100398.23
2018-08-06T01:52:18.582Z,100397.47
2018-08-06T01:54:49.484Z,100394.81
2018-08-06T01:57:21.310Z,100396.58
2018-08-06T01:59:52.363Z,100394.69
2018-08-06T02:02:23.398Z,100390.96
2018-08-06T02:04:54.493Z,100399.73
2018-08-06T02:07:25.484Z,100391.82
2018-08-06T02:09:56.514Z,100387.28
2018-08-06T02:12:27.518Z,100390.27
2018-08-06T02:14:58.570Z,100392.57
2018-08-06T02:17:29.527Z,100382.85
2018-08-06T02:20:00.486Z,100387.53
2018-08-06T02:22:31.694Z,100379.95
2018-08-06T02:25:02.641Z,100376.42
2018-08-06T02:27:33.501Z,100378.01
2018-08-06T02:30:05.485Z,100375.67
2018-08-06T02:32:36.567Z,100370.45
2018-08-06T02:35:09.361Z,100372.25
2018-08-06T02:37:40.609Z,100368.63
2018-08-06T02:40:19.299Z,100366.52
2018-08-06T02:45:36.491Z,100377.02
2018-08-06T02:48:07.713Z,100370.41
2018-08-06T02:50:38.556Z,100367.97
2018-08-06T02:53:09.497Z,100362.87
2018-08-06T02:55:40.556Z,100362.80
2018-08-06T02:58:11.502Z,100358.45
2018-08-06T03:00:42.508Z,100357.43
2018-08-06T03:03:13.518Z,100358.94
2018-08-06T03:05:44.489Z,100355.52
2018-08-06T03:08:15.485Z,100355.24
2018-08-06T03:10:46.475Z,100362.48
2018-08-06T03:13:17.545Z,100360.05
2018-08-06T03:15:48.738Z,100363.97
2018-08-06T03:18:20.596Z,100360.57
2018-08-06T03:20:51.465Z,100360.27
2018-08-06T03:23:22.453Z,100359.10
2018-08-06T03:25:53.476Z,100348.61
2018-08-06T03:28:24.501Z,100359.52
2018-08-06T03:30:55.525Z,100355.69
2018-08-06T03:33:27.304Z,100356.14
2018-08-06T03:35:58.411Z,100356.37
2018-08-06T03:38:29.465Z,100357.67
2018-08-06T03:41:00.506Z,100349.97
2018-08-06T03:43:31.505Z,100354.56
2018-08-06T03:46:02.489Z,100356.45
2018-08-06T03:48:34.495Z,100357.61
2018-08-06T03:51:05.480Z,100355.20
2018-08-06T03:53:36.509Z,100351.05
2018-08-06T03:56:07.499Z,100350.41
2018-08-06T03:58:40.238Z,100360.98
2018-08-06T04:01:11.832Z,100347.93
2018-08-06T04:03:42.309Z,100357.84
2018-08-06T04:06:13.371Z,100363.91
2018-08-06T04:08:44.401Z,100362.84
2018-08-06T04:11:15.462Z,100359.16
2018-08-06T04:13:47.215Z,100352.48
2018-08-06T04:16:18.565Z,100354.50
2018-08-06T04:18:49.504Z,100354.41
2018-08-06T04:21:20.500Z,100350.85
2018-08-06T04:23:51.552Z,100345.09
2018-08-06T04:26:22.505Z,100345.13
2018-08-06T04:28:53.492Z,100356.03
2018-08-06T04:31:24.517Z,100352.36
2018-08-06T04:33:56.017Z,100352.30
2018-08-06T04:36:27.302Z,100362.73
2018-08-06T04:38:58.361Z,100356.03
2018-08-06T04:41:29.618Z,100360.78
2018-08-06T04:44:00.512Z,100364.00
2018-08-06T04:46:31.460Z,100360.25
2018-08-06T04:49:02.671Z,100365.13
2018-08-06T04:51:33.737Z,100376.08
2018-08-06T04:54:06.646Z,100375.63
2018-08-06T04:56:37.542Z,100375.66
2018-08-06T04:59:08.529Z,100374.09
2018-08-06T05:01:39.598Z,100377.20
2018-08-06T05:04:10.501Z,100383.21
2018-08-06T05:06:41.484Z,100376.09
2018-08-06T05:09:22.436Z,100389.16
2018-08-06T05:11:53.542Z,100385.07
2018-08-06T05:14:24.516Z,100390.88
2018-08-06T05:16:55.546Z,100389.23
2018-08-06T05:19:26.553Z,100392.16
2018-08-06T05:21:57.503Z,100394.89
2018-08-06T05:24:28.604Z,100387.14
2018-08-06T05:26:59.515Z,100389.05
2018-08-06T05:29:30.526Z,100389.98
2018-08-06T05:32:01.463Z,100390.21
2018-08-06T05:34:32.529Z,100389.09
2018-08-06T05:37:03.500Z,100382.44
2018-08-06T05:39:35.241Z,100385.38
2018-08-06T05:42:06.449Z,100378.67
2018-08-06T05:44:37.521Z,100383.21
2018-08-06T05:47:08.659Z,100384.05
2018-08-06T05:49:39.582Z,100385.89
2018-08-06T05:52:10.660Z,100382.13
2018-08-06T05:54:41.578Z,100388.09
2018-08-06T05:57:12.564Z,100391.31
2018-08-06T05:59:43.741Z,100392.13
2018-08-06T06:02:14.544Z,100393.47
2018-08-06T06:04:45.504Z,100392.40
2018-08-06T06:07:16.477Z,100386.98
2018-08-06T06:09:47.606Z,100393.98
2018-08-06T06:12:18.547Z,100396.80
2018-08-06T06:14:49.493Z,100397.34
2018-08-06T06:17:20.545Z,100391.70
2018-08-06T06:19:51.566Z,100396.47
2018-08-06T06:24:53.033Z,100391.95
2018-08-06T06:27:24.350Z,100393.16
2018-08-06T06:29:55.385Z,100387.47
2018-08-06T06:32:26.489Z,100390.41
2018-08-06T06:34:57.605Z,100383.41
2018-08-06T06:37:28.509Z,100384.36
2018-08-06T06:39:59.491Z,100377.73
2018-08-06T06:42:30.524Z,100378.75
2018-08-06T06:45:01.593Z,100385.03
2018-08-06T06:47:32.500Z,100376.33
2018-08-06T06:50:05.378Z,100366.52
2018-08-06T06:52:36.481Z,100373.89
2018-08-06T06:55:11.465Z,100367.20
2018-08-06T06:57:43.478Z,100363.08
2018-08-06T07:00:14.519Z,100360.95
2018-08-06T07:02:45.545Z,100353.45
2018-08-06T07:05:16.497Z,100361.08
2018-08-06T07:07:47.481Z,100356.36
2018-08-06T07:10:18.502Z,100356.09
2018-08-06T07:12:49.561Z,100359.19
2018-08-06T07:15:20.521Z,100349.47
2018-08-06T07:17:51.498Z,100349.70
2018-08-06T07:20:22.571Z,100346.88
2018-08-06T07:22:53.526Z,100345.84
2018-08-06T07:25:24.485Z,100345.94
2018-08-06T07:27:55.484Z,100340.22
2018-08-06T07:30:26.545Z,100341.47
2018-08-06T07:32:57.501Z,100343.45
2018-08-06T07:35:30.236Z,100340.95
2018-08-06T07:38:01.352Z,100341.70
2018-08-06T07:40:32.398Z,100340.47
2018-08-06T07:43:03.739Z,100340.39
2018-08-06T07:45:34.560Z,100330.84
2018-08-06T07:48:06.171Z,100328.09
2018-08-06T07:50:37.361Z,100330.88
2018-08-06T07:53:09.238Z,100331.97
2018-08-06T07:55:40.389Z,100333.22
2018-08-06T07:58:11.513Z,100315.91
2018-08-06T08:00:42.493Z,100314.27
2018-08-06T08:03:13.513Z,100316.58
2018-08-06T08:05:44.509Z,100315.04
2018-08-06T08:08:15.482Z,100299.04
2018-08-06T08:10:46.517Z,100296.32
2018-08-06T08:13:17.525Z,100300.12
2018-08-06T08:15:48.548Z,100291.93
2018-08-06T08:18:19.489Z,100293.90
2018-08-06T08:20:50.496Z,100294.54
2018-08-06T08:23:21.474Z,100293.80
2018-08-06T08:25:52.482Z,100295.53
2018-08-06T08:28:23.469Z,100282.11
2018-08-06T08:30:54.514Z,100282.84
2018-08-06T08:33:25.498Z,100278.10
2018-08-06T08:35:56.653Z,100273.55
2018-08-06T08:38:27.549Z,100263.12
2018-08-06T08:40:58.498Z,100267.59
2018-08-06T08:43:29.473Z,100267.15
2018-08-06T08:46:00.484Z,100268.70
2018-08-06T08:48:31.452Z,100271.71
2018-08-06T08:51:02.493Z,100257.30
2018-08-06T08:53:33.488Z,100263.09
2018-08-06T08:56:04.505Z,100251.50
2018-08-06T08:58:35.588Z,100256.89
2018-08-06T09:01:06.553Z,100253.05
2018-08-06T09:03:37.538Z,100238.27
2018-08-06T09:06:08.509Z,100233.37
2018-08-06T09:08:39.469Z,100233.65
2018-08-06T09:11:11.436Z,100231.24
2018-08-06T09:13:42.836Z,100222.81
2018-08-06T09:16:13.281Z,100220.05
2018-08-06T09:18:44.378Z,100212.34
2018-08-06T09:21:15.510Z,100222.38
2018-08-06T09:23:46.474Z,100208.34
2018-08-06T09:26:17.498Z,100206.25
2018-08-06T09:28:48.505Z,100203.41
2018-08-06T09:31:19.501Z,100202.13
2018-08-06T09:33:50.492Z,100195.75
2018-08-06T09:36:21.491Z,100197.41
2018-08-06T09:38:52.531Z,100204.78
2018-08-06T09:41:23.472Z,100193.93
2018-08-06T09:43:54.575Z,100193.41
2018-08-06T09:46:25.530Z,100184.09
2018-08-06T09:48:56.499Z,100189.89
2018-08-06T09:51:27.526Z,100183.80
2018-08-06T09:53:58.483Z,100198.27
2018-08-06T09:56:29.548Z,100187.78
2018-08-06T09:59:00.492Z,100182.34
2018-08-06T10:01:36.789Z,100173.67
2018-08-06T10:04:07.227Z,100173.39
2018-08-06T10:06:38.955Z,100173.02
2018-08-06T10:09:11.248Z,100155.30
2018-08-06T10:11:42.459Z,100160.45
2018-08-06T10:14:13.482Z,100149.03
2018-08-06T10:16:44.514Z,100150.62
2018-08-06T10:19:15.525Z,100144.86
2018-08-06T10:21:46.478Z,100144.53
2018-08-06T10:24:17.497Z,100151.45
2018-08-06T10:26:48.531Z,100137.80
2018-08-06T10:29:19.456Z,100126.64
2018-08-06T10:31:50.489Z,100123.78
2018-08-06T10:34:21.477Z,100123.56
2018-08-06T10:36:52.489Z,100116.47
2018-08-06T10:39:23.480Z,100124.03
2018-08-06T10:41:54.460Z,100119.20
2018-08-06T10:44:25.489Z,100119.15
2018-08-06T10:46:56.515Z,100111.91
2018-08-06T10:49:27.510Z,100103.25
2018-08-06T10:51:58.569Z,100107.47
2018-08-06T10:54:29.557Z,100100.31
2018-08-06T10:57:00.501Z,100110.63
2018-08-06T10:59:31.495Z,100106.22
2018-08-06T11:02:02.490Z,100101.95
2018-08-06T11:04:33.477Z,100090.73
2018-08-06T11:07:04.490Z,100093.82
2018-08-06T11:09:35.502Z,100088.27
2018-08-06T11:12:06.518Z,100083.14
2018-08-06T11:14:37.498Z,100079.33
2018-08-06T11:17:08.497Z,100083.20
2018-08-06T11:19:39.505Z,100088.97
2018-08-06T11:22:10.506Z,100066.30
2018-08-06T11:24:41.482Z,100065.52
2018-08-06T11:27:12.536Z,100065.62
2018-08-06T11:29:43.494Z,100057.81
2018-08-06T11:32:14.490Z,100056.10
2018-08-06T11:34:45.453Z,100051.84
2018-08-06T11:37:16.518Z,100046.98
2018-08-06T11:39:47.513Z,100047.41
2018-08-06T11:42:18.550Z,100050.16
2018-08-06T11:44:49.489Z,100041.22
2018-08-06T11:47:20.507Z,100033.81
2018-08-06T11:49:51.481Z,100034.05
2018-08-06T11:52:22.533Z,100032.59
2018-08-06T11:54:53.509Z,100029.41
2018-08-06T11:57:24.685Z,100016.65
2018-08-06T11:59:56.028Z,100008.08
2018-08-06T12:02:27.624Z,100002.74
2018-08-06T12:04:58.547Z,100004.55
2018-08-06T12:07:29.683Z,100015.08
2018-08-06T12:10:00.761Z,100005.40
2018-08-06T12:12:31.583Z,99991.92
2018-08-06T12:15:02.510Z,99996.53
2018-08-06T12:17:33.643Z,99996.72
2018-08-06T12:20:07.961Z,100001.92
2018-08-06T12:22:39.412Z,99980.92
2018-08-06T12:25:11.551Z,99981.63
2018-08-06T12:27:42.841Z,99978.13
2018-08-06T12:30:20.242Z,99980.88
2018-08-06T12:32:52.252Z,99978.66
2018-08-06T12:35:23.394Z,99967.75
2018-08-06T12:37:54.503Z,99973.83
2018-08-06T12:40:25.505Z,99966.50
2018-08-06T12:42:56.493Z,99964.61
2018-08-06T12:45:27.509Z,99975.34
2018-08-06T12:47:58.492Z,99965.13
2018-08-06T12:50:29.490Z,99965.25
2018-08-06T12:53:00.509Z,99956.83
2018-08-06T12:55:31.534Z,99952.05
2018-08-06T12:58:02.521Z,99945.44
2018-08-06T13:00:33.498Z,99947.05
2018-08-06T13:03:04.566Z,99938.22
2018-08-06T13:05:35.561Z,99935.27
2018-08-06T13:08:06.516Z,99933.80
2018-08-06T13:10:37.513Z,99938.06
2018-08-06T13:13:08.535Z,99932.63
2018-08-06T13:15:39.511Z,99926.88
2018-08-06T13:18:10.536Z,99930.38
2018-08-06T13:20:41.489Z,99919.45
2018-08-06T13:23:12.518Z,99912.63
2018-08-06T13:25:43.469Z,99917.05
2018-08-06T13:28:14.519Z,99909.36
2018-08-06T13:30:45.519Z,99912.98
2018-08-06T13:33:16.527Z,99913.39
2018-08-06T13:35:47.484Z,99909.12
2018-08-06T13:38:18.609Z,99893.42
2018-08-06T13:40:49.629Z,99897.92
2018-08-06T13:43:20.608Z,99902.08
2018-08-06T13:45:51.535Z,99895.25
2018-08-06T13:48:22.549Z,99886.67
2018-08-06T13:50:53.468Z,99887.20
2018-08-06T13:53:24.591Z,99880.08
2018-08-06T13:55:55.497Z,99875.44
2018-08-06T13:58:26.517Z,99873.15
2018-08-06T14:00:57.480Z,99871.97
2018-08-06T14:03:28.522Z,99867.95
2018-08-06T14:05:59.517Z,99858.84
2018-08-06T14:08:30.537Z,99860.27
2018-08-06T14:11:01.841Z,99857.83
2018-08-06T14:13:32.279Z,99853.69
2018-08-06T14:16:03.531Z,99860.16
2018-08-06T14:18:34.498Z,99856.89
2018-08-06T14:21:05.497Z,99847.43
2018-08-06T14:23:36.587Z,99849.37
2018-08-06T14:26:07.482Z,99840.81
2018-08-06T14:28:38.506Z,99843.16
2018-08-06T14:31:09.480Z,99836.98
2018-08-06T14:33:40.468Z,99833.63
2018-08-06T14:36:11.494Z,99830.02
2018-08-06T14:38:42.518Z,99824.63
2018-08-06T14:41:13.484Z,99818.52
2018-08-06T14:43:44.516Z,99813.58
2018-08-06T14:46:15.492Z,99811.02
2018-08-06T14:48:46.577Z,99809.00
2018-08-06T14:51:17.509Z,99806.50
2018-08-06T14:53:48.499Z,99812.83
2018-08-06T14:56:19.489Z,99803.01
2018-08-06T14:58:50.510Z,99800.09
2018-08-06T15:01:21.482Z,99796.87
2018-08-06T15:03:52.461Z,99795.80
2018-08-06T15:06:23.750Z,99792.02
2018-08-06T15:08:54.551Z,99792.05
2018-08-06T15:11:25.630Z,99786.77
2018-08-06T15:13:56.510Z,99786.75
2018-08-06T15:16:27.481Z,99787.70
2018-08-06T15:18:58.532Z,99782.00
2018-08-06T15:21:29.509Z,99785.20
2018-08-06T15:24:00.810Z,99774.09
2018-08-06T15:26:31.301Z,99769.94
2018-08-06T15:29:02.380Z,99777.00
2018-08-06T15:31:33.518Z,99774.44
2018-08-06T15:34:04.502Z,99769.30
2018-08-06T15:36:35.456Z,99764.02
2018-08-06T15:39:12.850Z,99762.93
2018-08-06T15:41:44.287Z,99762.05
2018-08-06T15:44:15.381Z,99758.95
2018-08-06T15:46:46.468Z,99753.27
2018-08-06T15:49:17.578Z,99753.83
2018-08-06T15:51:48.504Z,99753.47
2018-08-06T15:54:19.488Z,99749.55
2018-08-06T15:56:50.529Z,99752.55
2018-08-06T15:59:21.514Z,99746.80
2018-08-06T16:01:52.475Z,99736.03
2018-08-06T16:04:23.513Z,99730.34
2018-08-06T16:06:54.492Z,99729.58
2018-08-06T16:09:25.549Z,99728.20
2018-08-06T16:11:56.593Z,99729.41
2018-08-06T16:14:27.553Z,99726.16
2018-08-06T16:16:58.553Z,99723.64
2018-08-06T16:19:29.524Z,99718.20
2018-08-06T16:22:00.500Z,99719.45
2018-08-06T16:24:31.525Z,99716.16
2018-08-06T16:27:02.507Z,99711.41
2018-08-06T16:29:34.301Z,99710.19
2018-08-06T16:32:05.361Z,99717.34
2018-08-06T16:34:36.374Z,99703.50
2018-08-06T16:37:07.369Z,99707.53
2018-08-06T16:39:38.373Z,99708.39
2018-08-06T16:42:09.393Z,99711.22
2018-08-06T16:44:40.472Z,99701.80
2018-08-06T16:47:11.576Z,99700.83
2018-08-06T16:49:42.549Z,99692.34
2018-08-06T16:52:13.529Z,99692.98
2018-08-06T16:54:44.538Z,99701.75
2018-08-06T16:57:15.498Z,99695.98
2018-08-06T16:59:46.551Z,99687.48
2018-08-06T17:02:17.521Z,99692.38
2018-08-06T17:04:48.522Z,99687.98
2018-08-06T17:07:19.498Z,99690.78
2018-08-06T17:09:50.500Z,99689.28
2018-08-06T17:12:21.514Z,99692.34
2018-08-06T17:14:52.612Z,99684.98
2018-08-06T17:17:23.525Z,99688.75
2018-08-06T17:19:54.548Z,99694.30
2018-08-06T17:22:25.465Z,99688.87
2018-08-06T17:24:56.518Z,99686.48
2018-08-06T17:27:27.509Z,99690.09
2018-08-06T17:29:59.425Z,99689.03
2018-08-06T17:32:31.393Z,99689.63
2018-08-06T17:35:02.674Z,99691.12
2018-08-06T17:37:33.557Z,99686.39
2018-08-06T17:40:05.597Z,99688.94
2018-08-06T17:42:36.678Z,99685.97
2018-08-06T17:45:11.493Z,99690.73
2018-08-06T17:47:42.670Z,99689.12
2018-08-06T17:50:22.564Z,99687.28
2018-08-06T17:52:54.408Z,99684.84
2018-08-06T17:55:25.578Z,99683.52
2018-08-06T17:57:56.505Z,99680.41
2018-08-06T18:00:27.613Z,99677.22
2018-08-06T18:02:58.730Z,99676.44
2018-08-06T18:05:30.614Z,99680.00
2018-08-06T18:08:13.792Z,99686.41
2018-08-06T18:10:44.723Z,99682.02
2018-08-06T18:13:15.636Z,99680.94
2018-08-06T18:15:46.565Z,99686.45
2018-08-06T18:18:17.480Z,99686.98
2018-08-06T18:20:48.571Z,99691.09
2018-08-06T18:23:19.497Z,99690.03
2018-08-06T18:25:50.519Z,99688.41
2018-08-06T18:28:22.662Z,99690.06
2018-08-06T18:30:53.586Z,99693.70
2018-08-06T18:33:25.014Z,99704.31
2018-08-06T18:35:56.494Z,99703.47
2018-08-06T18:38:27.522Z,99697.78
2018-08-06T18:40:58.507Z,99697.50
2018-08-06T18:43:29.545Z,99696.72
2018-08-06T18:46:00.497Z,99697.78
2018-08-06T18:48:31.490Z,99704.91
2018-08-06T18:51:02.579Z,99695.92
2018-08-06T18:53:33.709Z,99698.38
2018-08-06T18:56:04.608Z,99705.48
2018-08-06T18:58:35.598Z,99707.14
2018-08-06T19:01:06.593Z,99706.56
2018-08-06T19:03:37.536Z,99709.83
2018-08-06T19:06:08.526Z,99709.55
2018-08-06T19:08:39.502Z,99713.67
2018-08-06T19:11:10.537Z,99717.45
2018-08-06T19:13:46.509Z,99718.00
2018-08-06T19:16:17.549Z,99717.17
2018-08-06T19:18:53.683Z,99720.73
2018-08-06T19:21:24.574Z,99716.07
2018-08-06T19:24:00.787Z,99720.70
2018-08-06T19:26:31.575Z,99723.63
2018-08-06T19:29:02.579Z,99720.63
2018-08-06T19:31:33.516Z,99731.52
2018-08-06T19:34:04.528Z,99724.95
2018-08-06T19:36:40.689Z,99728.78
2018-08-06T19:39:12.397Z,99729.84
2018-08-06T19:41:43.605Z,99726.27
2018-08-06T19:44:14.529Z,99727.09
2018-08-06T19:46:45.498Z,99729.50
2018-08-06T19:49:21.769Z,99729.70
2018-08-06T19:51:52.593Z,99728.02
2018-08-06T19:54:23.537Z,99729.37
2018-08-06T19:56:54.516Z,99733.63
2018-08-06T19:59:25.679Z,99726.58
2018-08-06T20:01:56.525Z,99730.91
2018-08-06T20:04:27.463Z,99735.19
2018-08-06T20:06:58.536Z,99737.09
2018-08-06T20:09:29.513Z,99736.80
2018-08-06T20:12:00.614Z,99735.58
2018-08-06T20:14:31.557Z,99736.91
2018-08-06T20:17:02.519Z,99737.68
2018-08-06T20:19:33.504Z,99743.69
2018-08-06T20:22:04.502Z,99747.21
2018-08-06T20:24:35.553Z,99739.54
2018-08-06T20:27:06.554Z,99742.83
2018-08-06T20:29:37.519Z,99743.78
2018-08-06T20:32:08.761Z,99738.08
2018-08-06T20:34:39.593Z,99741.79
2018-08-06T20:37:10.618Z,99739.10
2018-08-06T20:39:41.497Z,99737.89
2018-08-06T20:42:12.551Z,99736.00
2018-08-06T20:44:43.541Z,99738.05
2018-08-06T20:47:14.497Z,99735.28
2018-08-06T20:49:45.491Z,99741.27
2018-08-06T20:52:16.559Z,99743.33
2018-08-06T20:54:47.501Z,99743.33
2018-08-06T20:57:19.550Z,99746.54
2018-08-06T20:59:50.718Z,99743.59
2018-08-06T21:02:21.662Z,99742.09
2018-08-06T21:04:52.492Z,99746.97
2018-08-06T21:07:23.513Z,99744.11
2018-08-06T21:09:54.501Z,99743.89
2018-08-06T21:12:26.030Z,99742.23
2018-08-06T21:14:57.366Z,99741.66
2018-08-06T21:17:28.450Z,99750.33
2018-08-06T21:19:59.501Z,99755.38
2018-08-06T21:22:30.606Z,99746.73
2018-08-06T21:25:01.484Z,99751.09
2018-08-06T21:27:32.489Z,99751.05
2018-08-06T21:30:03.512Z,99747.80
2018-08-06T21:32:34.521Z,99749.16
2018-08-06T21:35:06.387Z,99751.84
2018-08-06T21:37:37.512Z,99749.27
2018-08-06T21:40:08.490Z,99753.39
2018-08-06T21:42:39.587Z,99751.37
2018-08-06T21:45:11.030Z,99750.78
2018-08-06T21:47:42.413Z,99749.94
2018-08-06T21:50:14.349Z,99747.58
2018-08-06T21:52:45.441Z,99747.70
2018-08-06T21:55:16.529Z,99749.77
2018-08-06T21:57:47.570Z,99748.87
2018-08-06T22:00:30.393Z,99751.90
2018-08-06T22:03:02.017Z,99752.22
2018-08-06T22:05:33.385Z,99742.02
2018-08-06T22:08:04.603Z,99748.87
2018-08-06T22:10:35.517Z,99752.01
2018-08-06T22:13:08.225Z,99750.55
2018-08-06T22:15:39.537Z,99750.22
2018-08-06T22:18:12.449Z,99752.36
2018-08-06T22:20:43.466Z,99745.25
2018-08-06T22:23:14.496Z,99745.45
2018-08-06T22:25:45.478Z,99747.97
2018-08-06T22:28:16.496Z,99743.24
2018-08-06T22:30:47.476Z,99735.55
2018-08-06T22:33:18.506Z,99739.63
2018-08-06T22:35:49.477Z,99741.74
2018-08-06T22:38:20.476Z,99738.97
2018-08-06T22:40:51.449Z,99732.91
2018-08-06T22:43:22.520Z,99734.20
2018-08-06T22:45:53.497Z,99727.83
2018-08-06T22:48:24.468Z,99728.44
2018-08-06T22:50:55.511Z,99725.64
2018-08-06T22:53:26.503Z,99726.22
2018-08-06T22:56:07.389Z,99728.69
2018-08-06T22:58:38.791Z,99723.19
2018-08-06T23:01:11.570Z,99720.92
2018-08-06T23:03:42.500Z,99727.23
2018-08-06T23:06:13.472Z,99714.74
2018-08-06T23:08:44.624Z,99719.14
2018-08-06T23:11:15.554Z,99711.95
2018-08-06T23:13:46.506Z,99714.35
2018-08-06T23:16:17.482Z,99709.70
2018-08-06T23:18:48.508Z,99708.45
2018-08-06T23:21:19.478Z,99709.52
2018-08-06T23:23:50.535Z,99713.19
2018-08-06T23:26:21.496Z,99708.34
2018-08-06T23:28:52.501Z,99701.23
2018-08-06T23:31:23.509Z,99698.11
2018-08-06T23:33:54.517Z,99707.19
2018-08-06T23:36:25.456Z,99709.59
2018-08-06T23:38:56.477Z,99707.59
2018-08-06T23:41:27.462Z,99702.69
2018-08-06T23:43:58.538Z,99700.31
2018-08-06T23:46:29.443Z,99696.25
2018-08-06T23:49:01.468Z,99700.56
2018-08-06T23:51:32.500Z,99692.43
2018-08-06T23:54:03.505Z,99696.47
2018-08-06T23:56:34.476Z,99692.92
2018-08-06T23:59:07.245Z,99690.48
